sensor_id;sensor_type;location;lat;lon;timestamp;P1;durP1;ratioP1;P2;durP2;ratioP2
71183;SDS011;58887;51.980;4.464;2022-12-11T00:02:18;17.82;;;17.47;;
71183;SDS011;58887;51.980;4.464;2022-12-11T00:04:44;17.48;;;17.24;;
71183;SDS011;58887;51.980;4.464;2022-12-11T00:07:10;16.94;;;16.67;;
71183;SDS011;58887;51.980;4.464;2022-12-11T00:09:35;16.91;;;16.77;;
71183;SDS011;58887;51.980;4.464;2022-12-11T00:12:01;17.05;;;16.79;;
71183;SDS011;58887;51.980;4.464;2022-12-11T00:14:27;17.17;;;16.97;;
71183;SDS011;58887;51.980;4.464;2022-12-11T00:16:53;16.78;;;16.61;;
71183;SDS011;58887;51.980;4.464;2022-12-11T00:19:19;16.31;;;16.12;;
71183;SDS011;58887;51.980;4.464;2022-12-11T00:21:45;16.00;;;15.86;;
71183;SDS011;58887;51.980;4.464;2022-12-11T00:24:11;15.58;;;15.44;;
71183;SDS011;58887;51.980;4.464;2022-12-11T00:26:37;14.61;;;14.52;;
71183;SDS011;58887;51.980;4.464;2022-12-11T00:29:03;14.96;;;14.73;;
71183;SDS011;58887;51.980;4.464;2022-12-11T00:31:29;15.24;;;15.10;;
71183;SDS011;58887;51.980;4.464;2022-12-11T00:33:54;14.58;;;14.43;;
71183;SDS011;58887;51.980;4.464;2022-12-11T00:36:24;14.66;;;14.55;;
71183;SDS011;58887;51.980;4.464;2022-12-11T00:38:51;14.97;;;14.83;;
71183;SDS011;58887;51.980;4.464;2022-12-11T00:41:18;15.11;;;14.82;;
71183;SDS011;58887;51.980;4.464;2022-12-11T00:43:43;14.32;;;14.14;;
71183;SDS011;58887;51.980;4.464;2022-12-11T00:46:09;14.45;;;14.28;;
71183;SDS011;58887;51.980;4.464;2022-12-11T00:48:35;14.52;;;14.39;;
71183;SDS011;58887;51.980;4.464;2022-12-11T00:51:01;14.31;;;14.12;;
71183;SDS011;58887;51.980;4.464;2022-12-11T00:53:26;13.56;;;13.41;;
71183;SDS011;58887;51.980;4.464;2022-12-11T00:55:52;14.07;;;13.95;;
71183;SDS011;58887;51.980;4.464;2022-12-11T00:58:18;14.00;;;13.74;;
71183;SDS011;58887;51.980;4.464;2022-12-11T01:00:43;14.15;;;13.84;;
71183;SDS011;58887;51.980;4.464;2022-12-11T01:03:10;13.28;;;13.14;;
71183;SDS011;58887;51.980;4.464;2022-12-11T01:05:38;13.56;;;13.47;;
71183;SDS011;58887;51.980;4.464;2022-12-11T01:08:04;13.33;;;13.24;;
71183;SDS011;58887;51.980;4.464;2022-12-11T01:10:30;14.04;;;13.88;;
71183;SDS011;58887;51.980;4.464;2022-12-11T01:12:57;14.16;;;13.98;;
71183;SDS011;58887;51.980;4.464;2022-12-11T01:15:28;13.40;;;13.28;;
71183;SDS011;58887;51.980;4.464;2022-12-11T01:17:59;13.44;;;13.18;;
71183;SDS011;58887;51.980;4.464;2022-12-11T01:20:25;13.49;;;13.31;;
71183;SDS011;58887;51.980;4.464;2022-12-11T01:22:54;13.49;;;13.29;;
71183;SDS011;58887;51.980;4.464;2022-12-11T01:25:22;13.21;;;13.11;;
71183;SDS011;58887;51.980;4.464;2022-12-11T01:27:49;13.41;;;13.26;;
71183;SDS011;58887;51.980;4.464;2022-12-11T01:30:16;13.18;;;13.02;;
71183;SDS011;58887;51.980;4.464;2022-12-11T01:32:42;13.10;;;12.98;;
71183;SDS011;58887;51.980;4.464;2022-12-11T01:35:08;13.41;;;13.25;;
71183;SDS011;58887;51.980;4.464;2022-12-11T01:37:35;12.67;;;12.62;;
71183;SDS011;58887;51.980;4.464;2022-12-11T01:40:00;13.73;;;13.60;;
71183;SDS011;58887;51.980;4.464;2022-12-11T01:42:28;12.95;;;12.78;;
71183;SDS011;58887;51.980;4.464;2022-12-11T01:47:51;13.94;;;13.68;;
71183;SDS011;58887;51.980;4.464;2022-12-11T01:50:21;13.12;;;12.89;;
71183;SDS011;58887;51.980;4.464;2022-12-11T01:52:48;13.43;;;13.11;;
71183;SDS011;58887;51.980;4.464;2022-12-11T01:55:15;13.17;;;12.80;;
71183;SDS011;58887;51.980;4.464;2022-12-11T01:57:42;12.91;;;12.64;;
71183;SDS011;58887;51.980;4.464;2022-12-11T02:00:12;13.58;;;13.18;;
71183;SDS011;58887;51.980;4.464;2022-12-11T02:02:39;13.43;;;12.97;;
71183;SDS011;58887;51.980;4.464;2022-12-11T02:05:05;13.71;;;13.23;;
71183;SDS011;58887;51.980;4.464;2022-12-11T02:07:35;14.30;;;13.98;;
71183;SDS011;58887;51.980;4.464;2022-12-11T02:10:04;12.78;;;12.63;;
71183;SDS011;58887;51.980;4.464;2022-12-11T02:15:24;13.72;;;13.52;;
71183;SDS011;58887;51.980;4.464;2022-12-11T02:18:10;14.34;;;13.90;;
71183;SDS011;58887;51.980;4.464;2022-12-11T02:23:37;13.61;;;13.38;;
71183;SDS011;58887;51.980;4.464;2022-12-11T02:34:21;14.99;;;14.65;;
71183;SDS011;58887;51.980;4.464;2022-12-11T02:36:56;14.58;;;14.29;;
71183;SDS011;58887;51.980;4.464;2022-12-11T02:39:28;14.63;;;14.40;;
71183;SDS011;58887;51.980;4.464;2022-12-11T02:41:57;14.58;;;14.24;;
71183;SDS011;58887;51.980;4.464;2022-12-11T02:44:24;14.31;;;13.90;;
71183;SDS011;58887;51.980;4.464;2022-12-11T02:46:54;14.71;;;14.40;;
71183;SDS011;58887;51.980;4.464;2022-12-11T02:49:22;14.51;;;14.14;;
71183;SDS011;58887;51.980;4.464;2022-12-11T02:51:49;13.77;;;13.59;;
71183;SDS011;58887;51.980;4.464;2022-12-11T02:54:21;14.09;;;13.88;;
71183;SDS011;58887;51.980;4.464;2022-12-11T02:57:11;13.37;;;13.19;;
71183;SDS011;58887;51.980;4.464;2022-12-11T02:59:54;13.12;;;12.85;;
71183;SDS011;58887;51.980;4.464;2022-12-11T03:02:19;12.97;;;12.76;;
71183;SDS011;58887;51.980;4.464;2022-12-11T03:04:45;13.41;;;13.19;;
71183;SDS011;58887;51.980;4.464;2022-12-11T03:07:16;12.73;;;12.57;;
71183;SDS011;58887;51.980;4.464;2022-12-11T03:09:47;13.04;;;12.81;;
71183;SDS011;58887;51.980;4.464;2022-12-11T03:12:15;13.15;;;12.68;;
71183;SDS011;58887;51.980;4.464;2022-12-11T03:14:51;12.78;;;12.44;;
71183;SDS011;58887;51.980;4.464;2022-12-11T03:17:18;12.32;;;12.10;;
71183;SDS011;58887;51.980;4.464;2022-12-11T03:22:39;12.92;;;12.55;;
71183;SDS011;58887;51.980;4.464;2022-12-11T03:25:26;12.34;;;12.06;;
71183;SDS011;58887;51.980;4.464;2022-12-11T03:28:15;11.94;;;11.68;;
71183;SDS011;58887;51.980;4.464;2022-12-11T03:31:10;11.70;;;11.56;;
71183;SDS011;58887;51.980;4.464;2022-12-11T03:33:51;12.12;;;12.00;;
71183;SDS011;58887;51.980;4.464;2022-12-11T03:36:23;11.75;;;11.51;;
71183;SDS011;58887;51.980;4.464;2022-12-11T03:39:01;12.20;;;11.88;;
71183;SDS011;58887;51.980;4.464;2022-12-11T03:41:33;12.01;;;11.79;;
71183;SDS011;58887;51.980;4.464;2022-12-11T03:44:02;12.05;;;11.78;;
71183;SDS011;58887;51.980;4.464;2022-12-11T03:46:31;12.67;;;12.34;;
71183;SDS011;58887;51.980;4.464;2022-12-11T03:49:04;12.53;;;12.18;;
71183;SDS011;58887;51.980;4.464;2022-12-11T03:51:37;11.54;;;11.23;;
71183;SDS011;58887;51.980;4.464;2022-12-11T03:54:06;11.72;;;11.47;;
71183;SDS011;58887;51.980;4.464;2022-12-11T03:56:32;12.56;;;12.27;;
71183;SDS011;58887;51.980;4.464;2022-12-11T03:59:01;11.94;;;11.68;;
71183;SDS011;58887;51.980;4.464;2022-12-11T04:01:26;12.12;;;11.71;;
71183;SDS011;58887;51.980;4.464;2022-12-11T04:03:52;12.53;;;12.11;;
71183;SDS011;58887;51.980;4.464;2022-12-11T04:06:17;11.86;;;11.60;;
71183;SDS011;58887;51.980;4.464;2022-12-11T04:08:43;11.83;;;11.61;;
71183;SDS011;58887;51.980;4.464;2022-12-11T04:11:08;11.85;;;11.63;;
71183;SDS011;58887;51.980;4.464;2022-12-11T04:13:53;11.73;;;11.47;;
71183;SDS011;58887;51.980;4.464;2022-12-11T04:16:37;11.17;;;10.93;;
71183;SDS011;58887;51.980;4.464;2022-12-11T04:19:03;11.25;;;10.99;;
71183;SDS011;58887;51.980;4.464;2022-12-11T04:21:48;11.51;;;11.07;;
71183;SDS011;58887;51.980;4.464;2022-12-11T04:24:32;10.36;;;10.05;;
71183;SDS011;58887;51.980;4.464;2022-12-11T04:26:58;10.58;;;10.39;;
71183;SDS011;58887;51.980;4.464;2022-12-11T04:29:23;10.34;;;10.11;;
71183;SDS011;58887;51.980;4.464;2022-12-11T04:31:49;10.66;;;10.43;;
71183;SDS011;58887;51.980;4.464;2022-12-11T04:34:15;10.75;;;10.46;;
71183;SDS011;58887;51.980;4.464;2022-12-11T04:36:41;10.97;;;10.68;;
71183;SDS011;58887;51.980;4.464;2022-12-11T04:39:07;10.13;;;9.88;;
71183;SDS011;58887;51.980;4.464;2022-12-11T04:41:32;9.99;;;9.71;;
71183;SDS011;58887;51.980;4.464;2022-12-11T04:43:59;9.95;;;9.61;;
71183;SDS011;58887;51.980;4.464;2022-12-11T04:46:26;10.54;;;10.12;;
71183;SDS011;58887;51.980;4.464;2022-12-11T04:48:52;10.78;;;10.51;;
71183;SDS011;58887;51.980;4.464;2022-12-11T04:51:18;9.95;;;9.79;;
71183;SDS011;58887;51.980;4.464;2022-12-11T04:53:44;9.57;;;9.37;;
71183;SDS011;58887;51.980;4.464;2022-12-11T04:56:11;9.15;;;8.98;;
71183;SDS011;58887;51.980;4.464;2022-12-11T04:58:39;9.57;;;9.27;;
71183;SDS011;58887;51.980;4.464;2022-12-11T05:01:07;9.60;;;9.24;;
71183;SDS011;58887;51.980;4.464;2022-12-11T05:03:37;8.34;;;8.13;;
71183;SDS011;58887;51.980;4.464;2022-12-11T05:06:03;8.52;;;8.34;;
71183;SDS011;58887;51.980;4.464;2022-12-11T05:08:29;8.37;;;8.22;;
71183;SDS011;58887;51.980;4.464;2022-12-11T05:10:58;8.40;;;8.26;;
71183;SDS011;58887;51.980;4.464;2022-12-11T05:13:25;8.32;;;8.20;;
71183;SDS011;58887;51.980;4.464;2022-12-11T05:15:52;8.36;;;8.27;;
71183;SDS011;58887;51.980;4.464;2022-12-11T05:18:18;8.23;;;8.05;;
71183;SDS011;58887;51.980;4.464;2022-12-11T05:20:43;8.34;;;8.22;;
71183;SDS011;58887;51.980;4.464;2022-12-11T05:23:09;8.42;;;8.31;;
71183;SDS011;58887;51.980;4.464;2022-12-11T05:25:35;8.84;;;8.64;;
71183;SDS011;58887;51.980;4.464;2022-12-11T05:28:00;9.09;;;8.73;;
71183;SDS011;58887;51.980;4.464;2022-12-11T05:30:26;8.84;;;8.49;;
71183;SDS011;58887;51.980;4.464;2022-12-11T05:32:51;8.83;;;8.62;;
71183;SDS011;58887;51.980;4.464;2022-12-11T05:35:17;9.03;;;8.72;;
71183;SDS011;58887;51.980;4.464;2022-12-11T05:37:42;9.53;;;9.16;;
71183;SDS011;58887;51.980;4.464;2022-12-11T05:40:08;9.70;;;9.37;;
71183;SDS011;58887;51.980;4.464;2022-12-11T05:42:36;9.75;;;9.50;;
71183;SDS011;58887;51.980;4.464;2022-12-11T05:45:02;10.13;;;9.78;;
71183;SDS011;58887;51.980;4.464;2022-12-11T05:47:29;10.61;;;10.38;;
71183;SDS011;58887;51.980;4.464;2022-12-11T05:49:55;10.66;;;10.21;;
71183;SDS011;58887;51.980;4.464;2022-12-11T05:52:21;10.33;;;9.98;;
71183;SDS011;58887;51.980;4.464;2022-12-11T05:54:47;9.96;;;9.67;;
71183;SDS011;58887;51.980;4.464;2022-12-11T05:57:14;10.44;;;10.11;;
71183;SDS011;58887;51.980;4.464;2022-12-11T05:59:40;11.05;;;10.47;;
71183;SDS011;58887;51.980;4.464;2022-12-11T06:02:05;10.28;;;10.03;;
71183;SDS011;58887;51.980;4.464;2022-12-11T06:04:31;10.37;;;10.07;;
71183;SDS011;58887;51.980;4.464;2022-12-11T06:06:57;10.44;;;10.12;;
71183;SDS011;58887;51.980;4.464;2022-12-11T06:09:22;10.59;;;10.30;;
71183;SDS011;58887;51.980;4.464;2022-12-11T06:11:48;10.19;;;9.94;;
71183;SDS011;58887;51.980;4.464;2022-12-11T06:14:13;10.73;;;10.48;;
71183;SDS011;58887;51.980;4.464;2022-12-11T06:16:40;10.73;;;10.54;;
71183;SDS011;58887;51.980;4.464;2022-12-11T06:19:05;10.62;;;10.44;;
71183;SDS011;58887;51.980;4.464;2022-12-11T06:21:31;10.98;;;10.71;;
71183;SDS011;58887;51.980;4.464;2022-12-11T06:23:59;11.53;;;11.22;;
71183;SDS011;58887;51.980;4.464;2022-12-11T06:26:27;12.02;;;11.61;;
71183;SDS011;58887;51.980;4.464;2022-12-11T06:28:53;11.83;;;11.48;;
71183;SDS011;58887;51.980;4.464;2022-12-11T06:31:19;12.07;;;11.63;;
71183;SDS011;58887;51.980;4.464;2022-12-11T06:33:45;12.13;;;11.68;;
71183;SDS011;58887;51.980;4.464;2022-12-11T06:36:16;11.99;;;11.36;;
71183;SDS011;58887;51.980;4.464;2022-12-11T06:38:43;12.62;;;12.22;;
71183;SDS011;58887;51.980;4.464;2022-12-11T06:41:09;12.99;;;12.51;;
71183;SDS011;58887;51.980;4.464;2022-12-11T06:43:36;12.88;;;12.53;;
71183;SDS011;58887;51.980;4.464;2022-12-11T06:46:08;12.19;;;11.81;;
71183;SDS011;58887;51.980;4.464;2022-12-11T06:48:38;12.41;;;11.69;;
71183;SDS011;58887;51.980;4.464;2022-12-11T06:51:05;11.78;;;11.20;;
71183;SDS011;58887;51.980;4.464;2022-12-11T06:53:31;11.86;;;11.47;;
71183;SDS011;58887;51.980;4.464;2022-12-11T06:56:00;11.92;;;11.47;;
71183;SDS011;58887;51.980;4.464;2022-12-11T06:58:29;11.66;;;11.22;;
71183;SDS011;58887;51.980;4.464;2022-12-11T07:00:55;11.42;;;11.01;;
71183;SDS011;58887;51.980;4.464;2022-12-11T07:03:20;11.90;;;11.44;;
71183;SDS011;58887;51.980;4.464;2022-12-11T07:05:46;11.70;;;11.17;;
71183;SDS011;58887;51.980;4.464;2022-12-11T07:08:11;11.42;;;11.04;;
71183;SDS011;58887;51.980;4.464;2022-12-11T07:10:36;11.70;;;11.22;;
71183;SDS011;58887;51.980;4.464;2022-12-11T07:13:02;11.23;;;10.67;;
71183;SDS011;58887;51.980;4.464;2022-12-11T07:15:27;10.97;;;10.55;;
71183;SDS011;58887;51.980;4.464;2022-12-11T07:17:53;11.27;;;10.87;;
71183;SDS011;58887;51.980;4.464;2022-12-11T07:20:18;11.06;;;10.65;;
71183;SDS011;58887;51.980;4.464;2022-12-11T07:22:44;10.99;;;10.54;;
71183;SDS011;58887;51.980;4.464;2022-12-11T07:25:09;10.89;;;10.58;;
71183;SDS011;58887;51.980;4.464;2022-12-11T07:27:35;10.96;;;10.58;;
71183;SDS011;58887;51.980;4.464;2022-12-11T07:30:00;11.34;;;10.94;;
71183;SDS011;58887;51.980;4.464;2022-12-11T07:32:26;10.39;;;10.10;;
71183;SDS011;58887;51.980;4.464;2022-12-11T07:34:51;10.58;;;10.21;;
71183;SDS011;58887;51.980;4.464;2022-12-11T07:37:17;10.18;;;9.89;;
71183;SDS011;58887;51.980;4.464;2022-12-11T07:39:42;10.66;;;10.28;;
71183;SDS011;58887;51.980;4.464;2022-12-11T07:42:19;10.45;;;10.11;;
71183;SDS011;58887;51.980;4.464;2022-12-11T07:44:44;10.24;;;9.95;;
71183;SDS011;58887;51.980;4.464;2022-12-11T07:47:10;10.09;;;9.92;;
71183;SDS011;58887;51.980;4.464;2022-12-11T07:49:35;10.28;;;10.03;;
71183;SDS011;58887;51.980;4.464;2022-12-11T07:52:00;9.98;;;9.65;;
71183;SDS011;58887;51.980;4.464;2022-12-11T07:54:26;9.87;;;9.61;;
71183;SDS011;58887;51.980;4.464;2022-12-11T07:56:51;9.42;;;9.13;;
71183;SDS011;58887;51.980;4.464;2022-12-11T07:59:17;9.60;;;9.31;;
71183;SDS011;58887;51.980;4.464;2022-12-11T08:01:42;9.47;;;9.25;;
71183;SDS011;58887;51.980;4.464;2022-12-11T08:04:09;9.59;;;9.36;;
71183;SDS011;58887;51.980;4.464;2022-12-11T08:06:37;9.90;;;9.58;;
71183;SDS011;58887;51.980;4.464;2022-12-11T08:09:04;9.10;;;8.84;;
71183;SDS011;58887;51.980;4.464;2022-12-11T08:11:32;9.58;;;9.39;;
71183;SDS011;58887;51.980;4.464;2022-12-11T08:13:58;9.71;;;9.38;;
71183;SDS011;58887;51.980;4.464;2022-12-11T08:16:24;9.53;;;9.30;;
71183;SDS011;58887;51.980;4.464;2022-12-11T08:18:50;9.77;;;9.52;;
71183;SDS011;58887;51.980;4.464;2022-12-11T08:21:17;9.96;;;9.78;;
71183;SDS011;58887;51.980;4.464;2022-12-11T08:23:45;9.47;;;9.28;;
71183;SDS011;58887;51.980;4.464;2022-12-11T08:26:13;10.20;;;9.99;;
71183;SDS011;58887;51.980;4.464;2022-12-11T08:28:42;9.99;;;9.72;;
71183;SDS011;58887;51.980;4.464;2022-12-11T08:31:09;9.75;;;9.55;;
71183;SDS011;58887;51.980;4.464;2022-12-11T08:33:36;10.08;;;9.81;;
71183;SDS011;58887;51.980;4.464;2022-12-11T08:36:03;10.70;;;10.42;;
71183;SDS011;58887;51.980;4.464;2022-12-11T08:38:31;10.62;;;10.26;;
71183;SDS011;58887;51.980;4.464;2022-12-11T08:40:57;10.30;;;10.00;;
71183;SDS011;58887;51.980;4.464;2022-12-11T08:43:23;10.61;;;10.34;;
71183;SDS011;58887;51.980;4.464;2022-12-11T08:45:49;10.52;;;10.12;;
71183;SDS011;58887;51.980;4.464;2022-12-11T08:48:15;10.92;;;10.63;;
71183;SDS011;58887;51.980;4.464;2022-12-11T08:50:41;10.32;;;10.05;;
71183;SDS011;58887;51.980;4.464;2022-12-11T08:53:07;11.30;;;10.93;;
71183;SDS011;58887;51.980;4.464;2022-12-11T08:55:32;12.85;;;12.15;;
71183;SDS011;58887;51.980;4.464;2022-12-11T08:57:58;12.80;;;12.20;;
71183;SDS011;58887;51.980;4.464;2022-12-11T09:00:24;12.60;;;12.14;;
71183;SDS011;58887;51.980;4.464;2022-12-11T09:02:50;13.22;;;12.62;;
71183;SDS011;58887;51.980;4.464;2022-12-11T09:05:15;13.59;;;12.75;;
71183;SDS011;58887;51.980;4.464;2022-12-11T09:07:41;13.74;;;13.16;;
71183;SDS011;58887;51.980;4.464;2022-12-11T09:10:07;13.87;;;13.29;;
71183;SDS011;58887;51.980;4.464;2022-12-11T09:12:34;13.51;;;12.98;;
71183;SDS011;58887;51.980;4.464;2022-12-11T09:15:00;14.21;;;13.56;;
71183;SDS011;58887;51.980;4.464;2022-12-11T09:17:26;13.80;;;13.28;;
71183;SDS011;58887;51.980;4.464;2022-12-11T09:19:51;13.23;;;12.78;;
71183;SDS011;58887;51.980;4.464;2022-12-11T09:22:17;13.35;;;12.90;;
71183;SDS011;58887;51.980;4.464;2022-12-11T09:24:42;13.55;;;13.01;;
71183;SDS011;58887;51.980;4.464;2022-12-11T09:27:07;13.84;;;13.38;;
71183;SDS011;58887;51.980;4.464;2022-12-11T09:29:33;13.29;;;12.78;;
71183;SDS011;58887;51.980;4.464;2022-12-11T09:31:58;13.73;;;13.18;;
71183;SDS011;58887;51.980;4.464;2022-12-11T09:34:24;13.90;;;13.37;;
71183;SDS011;58887;51.980;4.464;2022-12-11T09:36:49;14.01;;;13.48;;
71183;SDS011;58887;51.980;4.464;2022-12-11T09:39:16;14.84;;;14.22;;
71183;SDS011;58887;51.980;4.464;2022-12-11T09:41:47;15.10;;;14.38;;
71183;SDS011;58887;51.980;4.464;2022-12-11T09:44:37;15.27;;;14.65;;
71183;SDS011;58887;51.980;4.464;2022-12-11T09:47:15;14.72;;;14.08;;
71183;SDS011;58887;51.980;4.464;2022-12-11T09:50:45;14.54;;;13.51;;
71183;SDS011;58887;51.980;4.464;2022-12-11T09:52:58;15.50;;;14.62;;
71183;SDS011;58887;51.980;4.464;2022-12-11T09:55:35;14.86;;;14.07;;
71183;SDS011;58887;51.980;4.464;2022-12-11T09:58:31;14.12;;;13.61;;
71183;SDS011;58887;51.980;4.464;2022-12-11T10:04:17;14.91;;;14.22;;
71183;SDS011;58887;51.980;4.464;2022-12-11T10:09:58;15.09;;;14.38;;
71183;SDS011;58887;51.980;4.464;2022-12-11T10:12:36;14.43;;;13.94;;
71183;SDS011;58887;51.980;4.464;2022-12-11T10:15:33;14.90;;;14.42;;
71183;SDS011;58887;51.980;4.464;2022-12-11T10:18:21;15.43;;;14.94;;
71183;SDS011;58887;51.980;4.464;2022-12-11T10:20:50;15.63;;;15.07;;
71183;SDS011;58887;51.980;4.464;2022-12-11T10:23:19;14.33;;;13.78;;
71183;SDS011;58887;51.980;4.464;2022-12-11T10:25:50;15.48;;;14.85;;
71183;SDS011;58887;51.980;4.464;2022-12-11T10:28:22;15.66;;;14.98;;
71183;SDS011;58887;51.980;4.464;2022-12-11T10:30:50;15.71;;;14.98;;
71183;SDS011;58887;51.980;4.464;2022-12-11T10:33:33;15.98;;;15.47;;
71183;SDS011;58887;51.980;4.464;2022-12-11T10:36:12;16.48;;;15.60;;
71183;SDS011;58887;51.980;4.464;2022-12-11T10:38:45;16.80;;;15.72;;
71183;SDS011;58887;51.980;4.464;2022-12-11T10:41:18;15.70;;;15.09;;
71183;SDS011;58887;51.980;4.464;2022-12-11T10:43:49;16.37;;;15.45;;
71183;SDS011;58887;51.980;4.464;2022-12-11T10:46:24;14.86;;;14.13;;
71183;SDS011;58887;51.980;4.464;2022-12-11T10:48:58;15.81;;;15.09;;
71183;SDS011;58887;51.980;4.464;2022-12-11T10:51:32;15.78;;;15.18;;
71183;SDS011;58887;51.980;4.464;2022-12-11T10:54:07;16.93;;;16.21;;
71183;SDS011;58887;51.980;4.464;2022-12-11T10:56:53;16.00;;;15.42;;
71183;SDS011;58887;51.980;4.464;2022-12-11T11:01:53;16.12;;;15.37;;
71183;SDS011;58887;51.980;4.464;2022-12-11T11:04:22;16.31;;;15.49;;
71183;SDS011;58887;51.980;4.464;2022-12-11T11:07:00;16.49;;;15.74;;
71183;SDS011;58887;51.980;4.464;2022-12-11T11:09:35;15.85;;;14.98;;
71183;SDS011;58887;51.980;4.464;2022-12-11T11:12:01;16.42;;;15.70;;
71183;SDS011;58887;51.980;4.464;2022-12-11T11:14:27;16.17;;;15.31;;
71183;SDS011;58887;51.980;4.464;2022-12-11T11:16:54;15.74;;;14.99;;
71183;SDS011;58887;51.980;4.464;2022-12-11T11:22:03;17.87;;;16.83;;
71183;SDS011;58887;51.980;4.464;2022-12-11T11:24:34;17.78;;;17.00;;
71183;SDS011;58887;51.980;4.464;2022-12-11T11:29:54;18.41;;;17.15;;
71183;SDS011;58887;51.980;4.464;2022-12-11T11:32:24;16.90;;;16.22;;
71183;SDS011;58887;51.980;4.464;2022-12-11T11:35:13;16.62;;;15.94;;
71183;SDS011;58887;51.980;4.464;2022-12-11T11:37:45;16.56;;;15.89;;
71183;SDS011;58887;51.980;4.464;2022-12-11T11:40:18;16.37;;;15.71;;
71183;SDS011;58887;51.980;4.464;2022-12-11T11:45:43;17.51;;;16.36;;
71183;SDS011;58887;51.980;4.464;2022-12-11T11:51:15;16.22;;;15.32;;
71183;SDS011;58887;51.980;4.464;2022-12-11T11:56:48;16.38;;;15.50;;
71183;SDS011;58887;51.980;4.464;2022-12-11T11:59:31;16.37;;;15.65;;
71183;SDS011;58887;51.980;4.464;2022-12-11T12:02:16;16.39;;;15.56;;
71183;SDS011;58887;51.980;4.464;2022-12-11T12:04:43;16.30;;;15.53;;
71183;SDS011;58887;51.980;4.464;2022-12-11T12:07:27;15.77;;;14.94;;
71183;SDS011;58887;51.980;4.464;2022-12-11T12:15:37;15.55;;;14.97;;
71183;SDS011;58887;51.980;4.464;2022-12-11T12:18:22;15.29;;;14.64;;
71183;SDS011;58887;51.980;4.464;2022-12-11T12:37:40;14.12;;;13.42;;
71183;SDS011;58887;51.980;4.464;2022-12-11T12:40:29;15.19;;;14.65;;
71183;SDS011;58887;51.980;4.464;2022-12-11T12:48:51;12.08;;;11.59;;
71183;SDS011;58887;51.980;4.464;2022-12-11T12:51:23;13.63;;;13.23;;
71183;SDS011;58887;51.980;4.464;2022-12-11T12:53:54;15.86;;;15.13;;
71183;SDS011;58887;51.980;4.464;2022-12-11T12:56:28;16.20;;;15.38;;
71183;SDS011;58887;51.980;4.464;2022-12-11T12:58:57;16.29;;;15.49;;
71183;SDS011;58887;51.980;4.464;2022-12-11T13:01:24;16.35;;;15.59;;
71183;SDS011;58887;51.980;4.464;2022-12-11T13:06:32;15.44;;;14.66;;
71183;SDS011;58887;51.980;4.464;2022-12-11T13:09:18;16.04;;;15.34;;
71183;SDS011;58887;51.980;4.464;2022-12-11T13:11:51;14.34;;;13.87;;
71183;SDS011;58887;51.980;4.464;2022-12-11T13:14:29;16.59;;;15.93;;
71183;SDS011;58887;51.980;4.464;2022-12-11T13:17:04;17.89;;;17.00;;
71183;SDS011;58887;51.980;4.464;2022-12-11T13:19:45;17.47;;;16.79;;
71183;SDS011;58887;51.980;4.464;2022-12-11T13:25:21;15.14;;;14.49;;
71183;SDS011;58887;51.980;4.464;2022-12-11T13:27:43;14.06;;;13.61;;
71183;SDS011;58887;51.980;4.464;2022-12-11T13:32:40;13.54;;;12.73;;
71183;SDS011;58887;51.980;4.464;2022-12-11T13:35:21;13.42;;;12.71;;
71183;SDS011;58887;51.980;4.464;2022-12-11T13:37:48;14.07;;;13.44;;
71183;SDS011;58887;51.980;4.464;2022-12-11T13:40:37;13.63;;;12.91;;
71183;SDS011;58887;51.980;4.464;2022-12-11T13:43:15;13.00;;;12.44;;
71183;SDS011;58887;51.980;4.464;2022-12-11T13:45:48;13.10;;;12.54;;
71183;SDS011;58887;51.980;4.464;2022-12-11T13:48:26;13.65;;;12.94;;
71183;SDS011;58887;51.980;4.464;2022-12-11T13:50:59;14.34;;;13.73;;
71183;SDS011;58887;51.980;4.464;2022-12-11T13:53:25;14.22;;;13.58;;
71183;SDS011;58887;51.980;4.464;2022-12-11T13:56:33;14.45;;;13.76;;
71183;SDS011;58887;51.980;4.464;2022-12-11T13:58:44;14.90;;;14.27;;
71183;SDS011;58887;51.980;4.464;2022-12-11T14:01:19;15.77;;;14.83;;
71183;SDS011;58887;51.980;4.464;2022-12-11T14:03:52;14.16;;;13.77;;
71183;SDS011;58887;51.980;4.464;2022-12-11T14:06:25;14.31;;;13.81;;
71183;SDS011;58887;51.980;4.464;2022-12-11T14:08:55;15.01;;;14.28;;
71183;SDS011;58887;51.980;4.464;2022-12-11T14:11:43;14.26;;;13.57;;
71183;SDS011;58887;51.980;4.464;2022-12-11T14:14:21;14.01;;;13.58;;
71183;SDS011;58887;51.980;4.464;2022-12-11T14:17:17;13.81;;;13.24;;
71183;SDS011;58887;51.980;4.464;2022-12-11T14:19:49;13.73;;;13.03;;
71183;SDS011;58887;51.980;4.464;2022-12-11T14:22:17;13.82;;;13.16;;
71183;SDS011;58887;51.980;4.464;2022-12-11T14:24:48;14.73;;;14.03;;
71183;SDS011;58887;51.980;4.464;2022-12-11T14:27:19;14.63;;;13.89;;
71183;SDS011;58887;51.980;4.464;2022-12-11T14:29:45;14.83;;;14.22;;
71183;SDS011;58887;51.980;4.464;2022-12-11T14:32:16;14.60;;;13.89;;
71183;SDS011;58887;51.980;4.464;2022-12-11T14:34:56;15.48;;;14.86;;
71183;SDS011;58887;51.980;4.464;2022-12-11T14:37:24;15.52;;;14.74;;
71183;SDS011;58887;51.980;4.464;2022-12-11T14:39:59;14.01;;;13.22;;
71183;SDS011;58887;51.980;4.464;2022-12-11T14:42:35;13.03;;;12.35;;
71183;SDS011;58887;51.980;4.464;2022-12-11T14:45:11;11.49;;;11.11;;
71183;SDS011;58887;51.980;4.464;2022-12-11T14:47:45;11.39;;;11.06;;
71183;SDS011;58887;51.980;4.464;2022-12-11T14:50:15;11.68;;;11.27;;
71183;SDS011;58887;51.980;4.464;2022-12-11T14:52:51;11.73;;;11.21;;
71183;SDS011;58887;51.980;4.464;2022-12-11T14:57:55;11.83;;;11.23;;
71183;SDS011;58887;51.980;4.464;2022-12-11T15:00:31;12.45;;;11.97;;
71183;SDS011;58887;51.980;4.464;2022-12-11T15:03:01;12.36;;;11.92;;
71183;SDS011;58887;51.980;4.464;2022-12-11T15:05:27;13.48;;;12.97;;
71183;SDS011;58887;51.980;4.464;2022-12-11T15:10:29;14.62;;;13.99;;
71183;SDS011;58887;51.980;4.464;2022-12-11T15:13:02;15.69;;;15.00;;
71183;SDS011;58887;51.980;4.464;2022-12-11T15:15:32;16.68;;;15.95;;
71183;SDS011;58887;51.980;4.464;2022-12-11T15:18:12;16.60;;;15.74;;
71183;SDS011;58887;51.980;4.464;2022-12-11T15:20:57;17.51;;;16.89;;
71183;SDS011;58887;51.980;4.464;2022-12-11T15:23:31;17.46;;;17.01;;
71183;SDS011;58887;51.980;4.464;2022-12-11T15:26:11;18.01;;;17.48;;
71183;SDS011;58887;51.980;4.464;2022-12-11T15:28:37;17.58;;;16.88;;
71183;SDS011;58887;51.980;4.464;2022-12-11T15:33:49;17.02;;;16.46;;
71183;SDS011;58887;51.980;4.464;2022-12-11T15:36:33;16.44;;;15.96;;
71183;SDS011;58887;51.980;4.464;2022-12-11T15:39:01;16.18;;;15.64;;
71183;SDS011;58887;51.980;4.464;2022-12-11T15:41:28;16.31;;;15.81;;
71183;SDS011;58887;51.980;4.464;2022-12-11T15:44:01;15.83;;;15.39;;
71183;SDS011;58887;51.980;4.464;2022-12-11T15:46:28;14.91;;;14.55;;
71183;SDS011;58887;51.980;4.464;2022-12-11T15:48:59;15.47;;;15.04;;
71183;SDS011;58887;51.980;4.464;2022-12-11T15:51:24;15.02;;;14.69;;
71183;SDS011;58887;51.980;4.464;2022-12-11T15:53:51;40.29;;;39.89;;
71183;SDS011;58887;51.980;4.464;2022-12-11T15:56:17;13.67;;;13.50;;
71183;SDS011;58887;51.980;4.464;2022-12-11T15:58:43;13.67;;;13.29;;
71183;SDS011;58887;51.980;4.464;2022-12-11T16:01:11;13.25;;;12.89;;
71183;SDS011;58887;51.980;4.464;2022-12-11T16:03:36;12.39;;;12.08;;
71183;SDS011;58887;51.980;4.464;2022-12-11T16:06:02;13.24;;;12.94;;
71183;SDS011;58887;51.980;4.464;2022-12-11T16:08:28;12.64;;;12.34;;
71183;SDS011;58887;51.980;4.464;2022-12-11T16:10:54;12.65;;;12.23;;